Lynn, MA (01901)

7:32 AM EDT on May 22, 2015 (GMT -0400)
Buchanan Circle | | Change Station
CLOSE
Current Station
Personal Weather Station
Location: Lynn, MA
Elevation: 108 ft
Nearby Weather Stations

Elev 108 ft 42.49 °N, 70.94 °W | Updated 2 minutes ago

Overcast
Overcast
55.0 °F
Feels Like 55.0 °F
N
0.0
Wind Variable Wind from WSW
Gusts 1.0 mph

Today
High -- | Low -- °F
--% Chance of Precip.
Yesterday
High -- | Low -- °F
Precip. -- in
5:15 AM 8:05 PM
Waxing Crescent, 20% visible
Pressure 29.83 in
Visibility 10.0 miles
Clouds Few 6500 ft
Overcast 8000 ft
Dew Point 48 °F
Humidity 76%
Rainfall 0.00 in
Snow Depth Not available.
UV 0.0 out of 12
Pollen 9.90 out of 12
Air Quality Not available.
Flu Activity Widespread
METAR KBOS 221054Z 25007KT 10SM FEW065 OVC080 12/06 A2983 RMK AO2 RAE0955 SLP099 T01220061

More Conditions Fewer Conditions

Pressure 29.83 in
Visibility 10.0 miles
Clouds Few 6500 ft
Overcast 8000 ft
Dew Point 48 °F
Humidity 76%
Rainfall 0.00 in
Snow Depth Not available.
UV 0.0 out of 12
Pollen 9.90 out of 12
Air Quality Not available.
Flu Activity Widespread
METAR KBOS 221054Z 25007KT 10SM FEW065 OVC080 12/06 A2983 RMK AO2 RAE0955 SLP099 T01220061

More Conditions Fewer Conditions

10-Day Weather Forecast

Almanac

Astronomy

May. 22, 2015 Rise Set
Actual Time
Civil Twilight
Nautical Twilight
Astronomical Twilight
Moon
Length of Visible Light
Length of Day
Tomorrow will be .
, % of the Moon is Illuminated

Today's Extremes

State Highs State Lows

Community

WunderPhotos

Upload Photos

1,823,206 photos uploaded!

WunderBlogs® & News

Nearby

Air Quality

  Air Quality AQ Index Pollutant
Not available.

Snow Depth

Station Depth Elevation

Earthquake Activity

City Distance Mag. Time & Date
Minimum magnitude displayed is 2.5.

Coastal Water Temperatures

Place Temperature

Stations

Nearby Weather Stations

Station Location Temp. Windchill Dew Point Humidity Wind Precip. Elev Updated Type